Date,TemperatureHighF,TemperatureAvgF,TemperatureLowF,DewpointHighF,DewpointAvgF,DewpointLowF,HumidityHigh,HumidityAvg,HumidityLow,PressureMaxIn,PressureMinIn,WindSpeedMaxMPH,WindSpeedAvgMPH,GustSpeedMaxMPH,PrecipitationSumIn
2013-4-1,74.7,61.9,46.5,26.3,17.9,2.8,45,21,7,29.85,29.63,14,2,17,0.00
2013-4-2,67.6,55.4,44.7,26.1,16.4,6.2,38,22,10,29.82,29.61,20,2,26,0.00
2013-4-3,68.1,51.9,36.7,31.3,25.4,17.1,69,40,15,30.01,29.81,14,2,18,0.00
2013-4-4,72.8,55.8,37.5,27.2,18.3,8.0,56,28,9,30.11,29.92,9,1,11,0.00
2013-4-5,77.1,64.3,54.8,18.0,12.3,7.0,22,14,8,29.94,29.57,18,3,22,0.00
2013-4-6,75.7,61.6,46.7,26.8,20.3,12.0,42,22,9,29.79,29.60,17,2,18,0.00
2013-4-7,76.5,62.6,45.1,26.7,19.2,11.4,44,21,10,29.69,29.51,18,2,29,0.00
2013-4-8,77.3,62.8,47.9,27.8,20.8,7.3,42,21,7,29.54,29.12,30,5,31,0.00
2013-4-9,54.0,44.9,36.8,35.2,30.4,23.8,89,58,37,29.76,29.15,19,3,25,0.10
2013-4-10,48.4,40.0,34.5,34.1,27.1,20.8,91,61,41,29.96,29.76,14,2,16,0.08
2013-4-11,66.5,47.1,28.2,31.5,24.7,18.1,72,45,23,30.00,29.77,17,3,20,0.00
2013-4-12,69.4,55.4,40.6,33.6,28.9,21.4,71,39,19,29.82,29.66,12,1,14,0.00
2013-4-13,74.9,58.9,41.2,29.8,22.3,10.2,60,29,9,29.76,29.48,18,3,25,0.00
2013-4-14,78.0,64.4,54.2,24.9,21.8,16.0,29,21,11,29.50,29.34,22,6,25,0.00
2013-4-15,80.9,63.3,46.0,25.4,18.8,6.1,41,21,6,29.54,29.33,19,4,22,0.00
2013-4-16,80.6,65.5,50.4,24.7,14.0,-8.3,29,16,3,29.58,29.36,25,5,27,0.00
2013-4-17,62.3,51.6,38.9,28.0,18.3,6.2,43,28,12,29.82,29.40,18,4,28,0.00
2013-4-18,50.3,40.1,29.1,17.6,6.0,-3.1,43,26,12,30.23,29.82,20,4,24,0.00
2013-4-19,62.4,42.1,25.7,7.8,4.6,-0.9,43,24,8,30.33,30.00,15,1,16,0.00
2013-4-21,74.2,63.7,53.5,17.2,11.2,1.3,23,14,6,29.86,29.81,13,2,15,0.00
2013-4-22,82.0,65.0,46.2,18.2,13.2,3.1,31,16,5,29.85,29.56,19,3,24,0.00
2013-4-23,69.5,57.5,40.9,30.0,14.3,-16.9,45,20,5,29.90,29.58,19,3,23,0.00
2013-4-24,69.8,50.1,28.3,21.9,16.7,7.2,65,31,12,30.09,29.90,9,1,12,0.00
2013-4-25,78.1,61.4,47.7,28.7,23.5,13.5,39,25,11,29.98,29.63,20,3,26,0.00
2013-4-26,76.3,60.3,44.6,31.0,18.9,-7.0,58,26,4,30.01,29.80,15,2,18,0.00
2013-4-27,77.1,60.9,43.2,29.1,13.2,-10.0,49,22,4,30.05,29.85,14,1,19,0.00
2013-4-28,80.7,63.6,44.7,18.3,5.9,-10.1,34,12,3,29.90,29.66,14,1,17,0.00
2013-4-29,86.3,67.4,48.4,22.0,13.2,6.7,30,14,6,29.73,29.48,23,2,24,0.00
2013-4-30,87.5,70.2,54.3,24.8,14.0,1.3,31,13,4,29.58,29.42,18,3,22,0.00